createdAt,value
2019-04-01T00:01:39.653Z,7.20
2019-04-01T00:04:09.960Z,7.80
2019-04-01T00:06:40.014Z,7.50
2019-04-01T00:09:10.262Z,7.30
2019-04-01T00:11:40.506Z,6.97
2019-04-01T00:14:10.857Z,6.60
2019-04-01T00:16:40.869Z,6.47
2019-04-01T00:19:10.968Z,6.97
2019-04-01T00:21:44.475Z,5.43
2019-04-01T00:24:13.124Z,6.10
2019-04-01T00:26:43.164Z,5.67
2019-04-01T00:29:13.137Z,6.07
2019-04-01T00:31:43.445Z,5.53
2019-04-01T00:34:13.457Z,5.90
2019-04-01T00:36:43.509Z,5.87
2019-04-01T00:39:13.619Z,5.57
2019-04-01T00:42:08.673Z,5.70
2019-04-01T00:44:40.331Z,6.00
2019-04-01T00:47:10.362Z,5.43
2019-04-01T00:49:40.408Z,5.53
2019-04-01T00:52:10.413Z,5.50
2019-04-01T00:54:40.342Z,5.80
2019-04-01T00:57:10.300Z,5.60
2019-04-01T00:59:40.533Z,5.57
2019-04-01T01:02:10.677Z,5.87
2019-04-01T01:04:40.706Z,5.67
2019-04-01T01:07:11.920Z,6.23
2019-04-01T01:09:41.925Z,5.80
2019-04-01T01:12:12.949Z,5.50
2019-04-01T01:14:43.245Z,5.13
2019-04-01T01:17:13.270Z,5.40
2019-04-01T01:19:43.424Z,5.20
2019-04-01T01:22:13.433Z,5.63
2019-04-01T01:24:43.735Z,5.83
2019-04-01T01:27:13.937Z,6.03
2019-04-01T01:29:43.965Z,6.57
2019-04-01T01:32:14.385Z,6.77
2019-04-01T01:34:45.072Z,6.50
2019-04-01T01:37:15.243Z,6.87
2019-04-01T01:39:45.372Z,7.17
2019-04-01T01:42:15.370Z,6.80
2019-04-01T01:44:45.576Z,6.50
2019-04-01T01:47:15.620Z,5.57
2019-04-01T01:49:45.633Z,5.33
2019-04-01T01:52:15.932Z,6.27
2019-04-01T01:54:46.937Z,5.20
2019-04-01T01:57:16.928Z,5.70
2019-04-01T01:59:47.478Z,6.30
2019-04-01T02:02:17.774Z,7.03
2019-04-01T02:04:47.932Z,6.00
2019-04-01T02:07:19.072Z,6.80
2019-04-01T02:09:49.093Z,5.77
2019-04-01T02:12:19.245Z,5.80
2019-04-01T02:14:49.488Z,6.30
2019-04-01T02:17:19.488Z,6.27
2019-04-01T02:19:49.605Z,5.60
2019-04-01T02:22:19.811Z,5.87
2019-04-01T02:24:50.028Z,6.50
2019-04-01T02:27:20.073Z,6.30
2019-04-01T02:29:50.037Z,5.10
2019-04-01T02:32:20.910Z,6.00
2019-04-01T02:34:50.941Z,5.87
2019-04-01T02:37:21.457Z,6.20
2019-04-01T02:39:51.470Z,5.67
2019-04-01T02:42:21.569Z,5.67
2019-04-01T02:44:51.841Z,5.50
2019-04-01T02:47:22.301Z,5.27
2019-04-01T02:49:52.333Z,5.70
2019-04-01T02:52:22.427Z,5.17
2019-04-01T02:54:52.551Z,6.10
2019-04-01T02:57:22.826Z,5.57
2019-04-01T02:59:53.335Z,5.50
2019-04-01T03:02:23.675Z,5.20
2019-04-01T03:04:54.728Z,6.23
2019-04-01T03:07:24.869Z,4.67
2019-04-01T03:09:54.923Z,5.70
2019-04-01T03:12:24.930Z,5.20
2019-04-01T03:14:55.132Z,6.47
2019-04-01T03:17:25.132Z,5.40
2019-04-01T03:19:55.266Z,5.50
2019-04-01T03:22:25.291Z,5.50
2019-04-01T03:24:55.269Z,5.67
2019-04-01T03:27:25.301Z,5.83
2019-04-01T03:29:56.017Z,6.20
2019-04-01T03:32:26.127Z,5.03
2019-04-01T03:34:56.164Z,6.10
2019-04-01T03:37:26.248Z,6.10
2019-04-01T03:39:56.236Z,5.70
2019-04-01T03:42:26.394Z,4.97
2019-04-01T03:44:56.585Z,5.40
2019-04-01T03:47:26.608Z,6.80
2019-04-01T03:49:56.626Z,6.23
2019-04-01T03:52:26.629Z,5.73
2019-04-01T03:54:56.883Z,6.30
2019-04-01T03:57:26.890Z,6.83
2019-04-01T03:59:56.854Z,5.67
2019-04-01T04:02:26.875Z,7.00
2019-04-01T04:04:56.957Z,6.30
2019-04-01T04:07:26.957Z,7.00
2019-04-01T04:09:57.023Z,6.47
2019-04-01T04:12:27.087Z,7.03
2019-04-01T04:14:57.212Z,7.10
2019-04-01T04:17:27.294Z,5.90
2019-04-01T04:19:57.268Z,6.10
2019-04-01T04:22:27.542Z,5.80
2019-04-01T04:24:57.648Z,5.63
2019-04-01T04:27:27.693Z,5.80
2019-04-01T04:29:57.709Z,6.53
2019-04-01T04:32:29.646Z,6.00
2019-04-01T04:34:59.654Z,7.80
2019-04-01T04:37:29.718Z,7.57
2019-04-01T04:39:59.724Z,7.60
2019-04-01T04:42:29.725Z,12.63
2019-04-01T04:44:59.889Z,6.30
2019-04-01T04:47:29.921Z,5.43
2019-04-01T04:49:59.933Z,6.47
2019-04-01T04:52:30.249Z,6.00
2019-04-01T04:55:00.376Z,6.10
2019-04-01T04:57:30.326Z,5.83
2019-04-01T05:00:00.402Z,5.57
2019-04-01T05:02:30.533Z,5.47
2019-04-01T05:05:00.563Z,5.57
2019-04-01T05:07:31.556Z,5.63
2019-04-01T05:10:01.827Z,5.63
2019-04-01T05:12:32.291Z,5.10
2019-04-01T05:15:02.489Z,6.03
2019-04-01T05:17:32.488Z,5.60
2019-04-01T05:20:03.162Z,6.10
2019-04-01T05:22:34.017Z,5.50
2019-04-01T05:25:05.700Z,5.50
2019-04-01T05:27:37.731Z,4.93
2019-04-01T05:30:08.204Z,5.17
2019-04-01T05:32:38.376Z,5.67
2019-04-01T05:35:08.909Z,5.50
2019-04-01T05:37:41.100Z,4.90
2019-04-01T05:40:12.020Z,5.43
2019-04-01T05:42:42.301Z,5.70
2019-04-01T05:45:12.591Z,5.63
2019-04-01T05:47:53.132Z,5.60
2019-04-01T05:50:23.189Z,5.80
2019-04-01T05:52:53.368Z,5.60
2019-04-01T05:55:24.076Z,5.30
2019-04-01T05:57:54.206Z,5.57
2019-04-01T06:00:29.646Z,6.80
2019-04-01T06:03:00.017Z,5.50
2019-04-01T06:05:30.090Z,4.93
2019-04-01T06:08:00.248Z,6.07
2019-04-01T06:10:30.328Z,5.93
2019-04-01T06:13:00.675Z,5.57
2019-04-01T06:15:30.876Z,6.10
2019-04-01T06:18:00.901Z,4.50
2019-04-01T06:20:31.356Z,5.33
2019-04-01T06:23:01.536Z,4.57
2019-04-01T06:25:31.761Z,5.80
2019-04-01T06:28:01.851Z,4.73
2019-04-01T06:30:32.139Z,5.47
2019-04-01T06:33:02.387Z,4.90
2019-04-01T06:35:33.216Z,4.73
2019-04-01T06:38:04.385Z,5.30
2019-04-01T06:40:34.430Z,5.77
2019-04-01T06:43:04.380Z,5.53
2019-04-01T06:45:34.594Z,6.60
2019-04-01T06:48:04.609Z,6.03
2019-04-01T06:50:34.684Z,7.30
2019-04-01T06:53:04.812Z,5.40
2019-04-01T06:55:35.105Z,5.00
2019-04-01T06:58:05.195Z,5.10
2019-04-01T07:00:35.470Z,5.93
2019-04-01T07:03:05.896Z,5.43
2019-04-01T07:05:36.350Z,6.87
2019-04-01T07:08:06.565Z,8.90
2019-04-01T07:10:36.653Z,8.03
2019-04-01T07:13:06.796Z,7.97
2019-04-01T07:15:37.958Z,7.93
2019-04-01T07:18:08.100Z,8.23
2019-04-01T07:20:38.157Z,8.13
2019-04-01T07:23:08.341Z,9.30
2019-04-01T07:25:38.414Z,9.77
2019-04-01T07:28:08.896Z,9.07
2019-04-01T07:30:41.668Z,9.20
2019-04-01T07:33:10.926Z,8.30
2019-04-01T07:35:41.009Z,8.43
2019-04-01T07:38:11.538Z,8.20
2019-04-01T07:40:41.656Z,9.00
2019-04-01T07:43:15.045Z,8.90
2019-04-01T07:45:44.202Z,8.70
2019-04-01T07:48:14.677Z,9.43
2019-04-01T07:50:44.921Z,9.60
2019-04-01T07:53:15.017Z,7.90
2019-04-01T07:55:45.825Z,9.03
2019-04-01T07:58:16.025Z,9.47
2019-04-01T08:00:46.405Z,9.43
2019-04-01T08:03:16.489Z,9.27
2019-04-01T08:05:46.517Z,10.00
2019-04-01T08:08:16.545Z,10.30
2019-04-01T08:10:46.812Z,11.50
2019-04-01T08:13:17.017Z,11.93
2019-04-01T08:15:47.013Z,11.87
2019-04-01T08:18:16.998Z,11.40
2019-04-01T08:20:47.111Z,11.83
2019-04-01T08:23:17.207Z,10.43
2019-04-01T08:25:48.109Z,10.87
2019-04-01T08:28:18.673Z,10.63
2019-04-01T08:30:48.785Z,11.30
2019-04-01T08:33:19.252Z,9.97
2019-04-01T08:35:49.536Z,10.10
2019-04-01T08:38:20.101Z,9.27
2019-04-01T08:40:50.612Z,10.03
2019-04-01T08:43:20.955Z,9.87
2019-04-01T08:45:51.280Z,9.97
2019-04-01T08:48:21.385Z,10.27
2019-04-01T08:50:51.628Z,9.10
2019-04-01T08:53:21.978Z,9.13
2019-04-01T08:56:00.355Z,8.93
2019-04-01T08:58:24.206Z,9.43
2019-04-01T09:00:54.366Z,8.37
2019-04-01T09:03:24.704Z,8.90
2019-04-01T09:05:55.033Z,7.43
2019-04-01T09:08:26.657Z,9.07
2019-04-01T09:10:56.774Z,8.80
2019-04-01T09:13:28.115Z,9.50
2019-04-01T09:15:58.889Z,8.57
2019-04-01T09:18:28.963Z,9.03
2019-04-01T09:20:59.013Z,10.03
2019-04-01T09:23:29.284Z,9.63
2019-04-01T09:25:59.777Z,9.00
2019-04-01T09:28:29.805Z,10.00
2019-04-01T09:30:59.881Z,9.87
2019-04-01T09:33:29.957Z,11.33
2019-04-01T09:36:00.381Z,12.13
2019-04-01T09:38:30.561Z,13.90
2019-04-01T09:41:00.937Z,13.73
2019-04-01T09:43:30.932Z,11.90
2019-04-01T09:46:01.014Z,9.13
2019-04-01T09:48:31.082Z,9.70
2019-04-01T09:51:01.172Z,9.77
2019-04-01T09:53:31.893Z,8.30
2019-04-01T09:56:01.897Z,8.97
2019-04-01T09:58:31.981Z,9.60
2019-04-01T10:01:02.025Z,9.20
2019-04-01T10:03:32.042Z,10.07
2019-04-01T10:06:02.052Z,8.30
2019-04-01T10:08:41.983Z,8.67
2019-04-01T10:11:03.943Z,8.00
2019-04-01T10:13:34.264Z,7.43
2019-04-01T10:16:04.578Z,7.10
2019-04-01T10:18:34.969Z,6.57
2019-04-01T10:21:05.277Z,7.53
2019-04-01T10:23:35.417Z,7.90
2019-04-01T10:26:05.536Z,8.00
2019-04-01T10:28:35.533Z,6.50
2019-04-01T10:31:05.732Z,7.50
2019-04-01T10:33:35.792Z,6.97
2019-04-01T10:36:05.894Z,6.47
2019-04-01T10:38:35.865Z,6.73
2019-04-01T10:41:06.257Z,7.23
2019-04-01T10:43:38.953Z,6.70
2019-04-01T10:46:12.112Z,6.47
2019-04-01T10:48:40.671Z,6.30
2019-04-01T10:51:10.696Z,7.20
2019-04-01T10:53:41.280Z,6.33
2019-04-01T10:56:11.404Z,5.67
2019-04-01T10:58:41.613Z,6.43
2019-04-01T11:01:11.795Z,5.97
2019-04-01T11:03:41.786Z,5.67
2019-04-01T11:06:12.447Z,4.57
2019-04-01T11:08:42.459Z,5.00
2019-04-01T11:11:12.529Z,5.50
2019-04-01T11:13:42.927Z,5.23
2019-04-01T11:16:13.041Z,5.43
2019-04-01T11:18:43.120Z,4.23
2019-04-01T11:21:13.133Z,4.80
2019-04-01T11:23:43.249Z,5.23
2019-04-01T11:26:13.441Z,4.97
2019-04-01T11:28:43.618Z,5.37
2019-04-01T11:31:13.968Z,4.90
2019-04-01T11:33:44.229Z,4.20
2019-04-01T11:36:14.446Z,5.17
2019-04-01T11:38:44.536Z,4.80
2019-04-01T11:41:14.821Z,4.87
2019-04-01T11:43:45.074Z,5.53
2019-04-01T11:46:15.192Z,4.67
2019-04-01T11:48:45.323Z,4.90
2019-04-01T11:51:15.464Z,5.07
2019-04-01T11:53:45.543Z,5.43
2019-04-01T11:56:15.577Z,5.50
2019-04-01T11:58:46.235Z,4.90
2019-04-01T12:01:16.300Z,4.17
2019-04-01T12:03:46.752Z,4.57
2019-04-01T12:06:16.944Z,4.73
2019-04-01T12:08:47.022Z,4.80
2019-04-01T12:11:17.090Z,4.50
2019-04-01T12:13:47.358Z,4.17
2019-04-01T12:16:17.469Z,4.63
2019-04-01T12:18:51.256Z,4.13
2019-04-01T12:21:21.624Z,4.00
2019-04-01T12:23:51.887Z,4.83
2019-04-01T12:26:22.014Z,4.00
2019-04-01T12:28:52.140Z,4.27
2019-04-01T12:31:22.300Z,4.50
2019-04-01T12:33:53.253Z,4.10
2019-04-01T12:36:23.268Z,4.80
2019-04-01T12:38:53.772Z,4.43
2019-04-01T12:41:24.163Z,4.50
2019-04-01T12:43:54.471Z,4.33
2019-04-01T12:46:24.652Z,4.10
2019-04-01T12:48:54.683Z,4.60
2019-04-01T12:51:24.700Z,5.37
2019-04-01T12:53:55.097Z,4.23
2019-04-01T12:56:25.260Z,4.50
2019-04-01T12:58:55.318Z,4.13
2019-04-01T13:01:25.493Z,5.10
2019-04-01T13:03:55.573Z,4.90
2019-04-01T13:06:25.763Z,5.90
2019-04-01T13:08:55.809Z,4.87
2019-04-01T13:11:26.097Z,4.60
2019-04-01T13:13:56.073Z,5.10
2019-04-01T13:16:26.181Z,5.20
2019-04-01T13:18:56.254Z,5.10
2019-04-01T13:21:26.748Z,5.03
2019-04-01T13:23:57.006Z,5.60
2019-04-01T13:26:30.950Z,4.83
2019-04-01T13:29:01.398Z,5.30
2019-04-01T13:31:31.564Z,5.00
2019-04-01T13:34:01.876Z,5.87
2019-04-01T13:36:32.381Z,6.07
2019-04-01T13:39:04.327Z,6.03
2019-04-01T13:41:42.392Z,5.50
2019-04-01T13:44:09.124Z,5.73
2019-04-01T13:46:38.989Z,5.60
2019-04-01T13:49:09.029Z,5.67
2019-04-01T13:51:39.106Z,5.47
2019-04-01T13:54:11.465Z,5.87
2019-04-01T13:56:42.897Z,5.33
2019-04-01T13:59:13.169Z,5.73
2019-04-01T14:01:43.213Z,4.67
2019-04-01T14:04:13.806Z,5.80
2019-04-01T14:06:43.841Z,4.77
2019-04-01T14:09:13.833Z,5.07
2019-04-01T14:11:43.929Z,5.50
2019-04-01T14:14:14.030Z,5.80
2019-04-01T14:16:44.136Z,5.43
2019-04-01T14:19:14.246Z,4.63
2019-04-01T14:21:44.481Z,5.23
2019-04-01T14:24:15.228Z,4.90
2019-04-01T14:26:46.156Z,5.10
2019-04-01T14:29:16.788Z,5.20
2019-04-01T14:31:46.896Z,5.10
2019-04-01T14:34:22.786Z,4.97
2019-04-01T14:36:48.467Z,5.20
2019-04-01T14:39:18.493Z,4.80
2019-04-01T14:41:48.497Z,4.90
2019-04-01T14:44:18.572Z,5.30
2019-04-01T14:46:48.548Z,5.17
2019-04-01T14:49:18.698Z,5.00
2019-04-01T14:51:48.963Z,6.00
2019-04-01T14:54:20.625Z,4.80
2019-04-01T14:56:50.564Z,5.30
2019-04-01T14:59:20.770Z,5.20
2019-04-01T15:01:51.186Z,4.90
2019-04-01T15:04:21.290Z,6.60
2019-04-01T15:06:51.443Z,6.07
2019-04-01T15:09:23.446Z,5.67
2019-04-01T15:11:53.089Z,5.17
2019-04-01T15:14:23.181Z,5.57
2019-04-01T15:16:53.490Z,5.53
2019-04-01T15:19:23.486Z,4.90
2019-04-01T15:21:53.610Z,5.40
2019-04-01T15:24:42.563Z,5.03
2019-04-01T15:27:12.625Z,4.90
2019-04-01T15:29:42.633Z,4.67
2019-04-01T15:32:12.610Z,4.70
2019-04-01T15:34:42.684Z,5.70
2019-04-01T15:37:12.897Z,4.53
2019-04-01T15:39:42.888Z,4.70
2019-04-01T15:42:14.121Z,4.87
2019-04-01T15:44:44.461Z,4.40
2019-04-01T15:47:14.582Z,4.60
2019-04-01T15:49:44.729Z,5.00
2019-04-01T15:52:14.909Z,5.60
2019-04-01T15:54:44.985Z,5.23
2019-04-01T15:57:15.331Z,6.00
2019-04-01T15:59:46.644Z,4.80
2019-04-01T16:02:16.701Z,5.57
2019-04-01T16:04:46.688Z,5.00
2019-04-01T16:07:16.857Z,5.30
2019-04-01T16:09:46.853Z,5.60
2019-04-01T16:12:16.968Z,5.70
2019-04-01T16:14:47.026Z,5.33
2019-04-01T16:17:17.090Z,4.83
2019-04-01T16:19:47.195Z,5.47
2019-04-01T16:22:17.424Z,6.43
2019-04-01T16:24:47.729Z,5.37
2019-04-01T16:27:18.064Z,4.80
2019-04-01T16:29:48.210Z,5.50
2019-04-01T16:32:18.260Z,5.43
2019-04-01T16:34:48.289Z,5.77
2019-04-01T16:37:18.342Z,5.90
2019-04-01T16:39:48.907Z,6.57
2019-04-01T16:42:19.468Z,6.90
2019-04-01T16:44:49.800Z,7.27
2019-04-01T16:47:19.917Z,5.53
2019-04-01T16:49:49.938Z,6.40
2019-04-01T16:52:20.321Z,6.87
2019-04-01T16:55:00.402Z,6.40
2019-04-01T16:57:30.487Z,6.30
2019-04-01T17:00:00.484Z,6.47
2019-04-01T17:02:32.882Z,6.60
2019-04-01T17:05:02.509Z,7.20
2019-04-01T17:07:33.010Z,7.80
2019-04-01T17:10:04.096Z,8.77
2019-04-01T17:12:34.372Z,8.03
2019-04-01T17:15:04.496Z,8.27
2019-04-01T17:17:34.581Z,7.67
2019-04-01T17:20:05.912Z,7.10
2019-04-01T17:22:35.905Z,7.30
2019-04-01T17:25:06.376Z,7.43
2019-04-01T17:27:36.360Z,6.37
2019-04-01T17:30:08.257Z,6.87
2019-04-01T17:32:38.209Z,6.90
2019-04-01T17:35:09.103Z,5.90
2019-04-01T17:37:39.210Z,7.33
2019-04-01T17:40:11.488Z,5.90
2019-04-01T17:42:41.724Z,6.70
2019-04-01T17:45:34.358Z,5.70
2019-04-01T17:48:05.165Z,5.43
2019-04-01T17:50:35.620Z,6.50
2019-04-01T17:53:07.953Z,5.83
2019-04-01T17:55:38.148Z,6.57
2019-04-01T17:58:08.538Z,5.30
2019-04-01T18:00:42.544Z,4.93
2019-04-01T18:03:12.820Z,6.10
2019-04-01T18:05:43.395Z,5.30
2019-04-01T18:08:13.753Z,6.30
2019-04-01T18:10:43.753Z,5.90
2019-04-01T18:13:13.946Z,6.37
2019-04-01T18:15:49.822Z,5.73
2019-04-01T18:18:26.711Z,6.20
2019-04-01T18:20:51.699Z,5.57
2019-04-01T18:23:22.291Z,6.40
2019-04-01T18:25:52.628Z,5.37
2019-04-01T18:28:22.605Z,6.07
2019-04-01T18:30:54.285Z,6.30
2019-04-01T18:33:27.796Z,6.20
2019-04-01T18:35:58.763Z,6.03
2019-04-01T18:38:29.860Z,6.00
2019-04-01T18:41:00.501Z,6.50
2019-04-01T18:43:31.184Z,7.00
2019-04-01T18:46:01.533Z,6.70
2019-04-01T18:48:31.538Z,6.60
2019-04-01T18:51:04.753Z,7.30
2019-04-01T18:53:38.120Z,7.23
2019-04-01T18:56:14.257Z,6.47
2019-04-01T18:58:44.387Z,6.77
2019-04-01T19:01:16.869Z,6.37
2019-04-01T19:03:47.762Z,6.03
2019-04-01T19:06:21.945Z,6.43
2019-04-01T19:08:51.989Z,6.77
2019-04-01T19:11:22.237Z,6.60
2019-04-01T19:13:52.443Z,6.97
2019-04-01T19:16:23.123Z,6.90
2019-04-01T19:18:53.606Z,6.80
2019-04-01T19:21:24.135Z,7.30
2019-04-01T19:23:54.301Z,6.60
2019-04-01T19:26:24.606Z,6.87
2019-04-01T19:28:58.092Z,6.17
2019-04-01T19:31:26.641Z,6.67
2019-04-01T19:33:56.703Z,7.10
2019-04-01T19:36:27.458Z,6.53
2019-04-01T19:38:58.988Z,6.40
2019-04-01T19:41:29.153Z,6.10
2019-04-01T19:44:00.234Z,6.87
2019-04-01T19:46:30.289Z,6.10
2019-04-01T19:49:04.812Z,5.97
2019-04-01T19:51:32.160Z,6.07
2019-04-01T19:54:02.564Z,6.27
2019-04-01T19:56:32.996Z,6.40
2019-04-01T19:59:03.346Z,7.47
2019-04-01T20:01:33.390Z,6.70
2019-04-01T20:04:03.641Z,6.03
2019-04-01T20:06:33.807Z,5.50
2019-04-01T20:09:05.752Z,5.63
2019-04-01T20:11:36.253Z,5.17
2019-04-01T20:14:06.753Z,5.30
2019-04-01T20:16:37.026Z,5.97
2019-04-01T20:19:07.709Z,5.97
2019-04-01T20:21:38.027Z,4.83
2019-04-01T20:24:08.316Z,5.43
2019-04-01T20:26:38.412Z,5.13
2019-04-01T20:29:08.465Z,5.00
2019-04-01T20:31:38.532Z,6.37
2019-04-01T20:34:19.064Z,5.40
2019-04-01T20:36:40.537Z,6.40
2019-04-01T20:39:12.175Z,6.30
2019-04-01T20:41:43.273Z,6.50
2019-04-01T20:44:13.402Z,5.67
2019-04-01T20:46:43.548Z,5.70
2019-04-01T20:49:13.601Z,6.77
2019-04-01T20:51:43.743Z,6.00
2019-04-01T20:54:14.109Z,5.73
2019-04-01T20:56:45.405Z,6.83
2019-04-01T20:59:15.515Z,6.83
2019-04-01T21:01:45.838Z,6.00
2019-04-01T21:04:16.060Z,6.13
2019-04-01T21:06:46.073Z,6.40
2019-04-01T21:09:16.357Z,6.47
2019-04-01T21:11:46.976Z,6.43
2019-04-01T21:14:17.372Z,6.60
2019-04-01T21:16:47.332Z,5.80
2019-04-01T21:19:16.823Z,6.13
2019-04-01T21:21:46.815Z,6.47
2019-04-01T21:24:17.290Z,6.70
2019-04-01T21:26:47.431Z,7.90
2019-04-01T21:29:18.041Z,6.97
2019-04-01T21:31:48.559Z,6.47
2019-04-01T21:34:18.581Z,6.90
2019-04-01T21:36:48.673Z,6.80
2019-04-01T21:39:18.912Z,6.33
2019-04-01T21:41:49.097Z,7.27
2019-04-01T21:44:19.179Z,7.00
2019-04-01T21:46:49.185Z,6.67
2019-04-01T21:49:19.269Z,7.70
2019-04-01T21:51:49.719Z,7.07
2019-04-01T21:54:19.915Z,7.70
2019-04-01T21:56:49.999Z,7.60
2019-04-01T21:59:20.142Z,6.80
2019-04-01T22:01:50.260Z,8.20
2019-04-01T22:04:20.622Z,7.37
2019-04-01T22:06:50.902Z,7.17
2019-04-01T22:09:21.013Z,6.90
2019-04-01T22:11:51.045Z,7.40
2019-04-01T22:14:21.325Z,6.53
2019-04-01T22:16:51.568Z,6.37
2019-04-01T22:19:21.560Z,6.83
2019-04-01T22:21:51.577Z,6.77
2019-04-01T22:24:21.621Z,6.80
2019-04-01T22:26:51.737Z,7.07
2019-04-01T22:29:21.917Z,6.17
2019-04-01T22:31:52.552Z,6.73
2019-04-01T22:34:22.780Z,6.50
2019-04-01T22:36:53.361Z,6.40
2019-04-01T22:39:27.367Z,6.60
2019-04-01T22:41:55.260Z,6.43
2019-04-01T22:44:25.252Z,6.77
2019-04-01T22:46:55.268Z,6.37
2019-04-01T22:49:25.335Z,7.27
2019-04-01T22:51:55.344Z,6.80
2019-04-01T22:54:25.873Z,6.90
2019-04-01T22:56:56.260Z,7.23
2019-04-01T22:59:26.844Z,6.97
2019-04-01T23:01:59.337Z,7.00
2019-04-01T23:04:28.505Z,6.83
2019-04-01T23:07:10.281Z,6.63
2019-04-01T23:09:40.312Z,6.87
2019-04-01T23:12:10.381Z,7.00
2019-04-01T23:14:40.568Z,6.73
2019-04-01T23:17:10.584Z,7.03
2019-04-01T23:19:40.673Z,6.47
2019-04-01T23:22:10.926Z,6.90
2019-04-01T23:24:40.959Z,6.70
2019-04-01T23:27:11.016Z,7.20
2019-04-01T23:29:41.681Z,8.03
2019-04-01T23:32:11.804Z,7.90
2019-04-01T23:34:42.363Z,8.23
2019-04-01T23:37:13.484Z,7.67
2019-04-01T23:39:43.872Z,7.53
2019-04-01T23:42:14.311Z,7.90
2019-04-01T23:44:44.381Z,8.20
2019-04-01T23:47:15.260Z,7.50
2019-04-01T23:49:45.996Z,8.40
2019-04-01T23:52:16.058Z,8.83
2019-04-01T23:54:46.093Z,8.57
2019-04-01T23:57:16.145Z,8.70
2019-04-01T23:59:47.241Z,9.07
